sensor_id;sensor_type;location;lat;lon;timestamp;pressure;altitude;pressure_sealevel;temperature;humidity
47366;BME280;33105;47.964;7.982;2023-02-22T00:02:54;96604.91;;;5.11;57.34
47366;BME280;33105;47.964;7.982;2023-02-22T00:06:01;96603.97;;;5.18;56.67
47366;BME280;33105;47.964;7.982;2023-02-22T00:09:04;96596.69;;;5.18;57.13
47366;BME280;33105;47.964;7.982;2023-02-22T00:12:08;96598.06;;;5.21;56.89
47366;BME280;33105;47.964;7.982;2023-02-22T00:15:10;96601.69;;;5.03;57.73
47366;BME280;33105;47.964;7.982;2023-02-22T00:18:16;96605.78;;;4.94;58.27
47366;BME280;33105;47.964;7.982;2023-02-22T00:21:18;96597.38;;;4.84;57.90
47366;BME280;33105;47.964;7.982;2023-02-22T00:24:19;96599.13;;;4.78;56.56
47366;BME280;33105;47.964;7.982;2023-02-22T00:27:24;96592.38;;;4.99;56.94
47366;BME280;33105;47.964;7.982;2023-02-22T00:30:28;96591.59;;;5.10;55.99
47366;BME280;33105;47.964;7.982;2023-02-22T00:33:29;96593.91;;;4.95;56.16
47366;BME280;33105;47.964;7.982;2023-02-22T00:36:31;96588.97;;;5.03;55.98
47366;BME280;33105;47.964;7.982;2023-02-22T00:39:32;96583.69;;;5.20;56.62
47366;BME280;33105;47.964;7.982;2023-02-22T00:42:33;96584.78;;;5.19;56.43
47366;BME280;33105;47.964;7.982;2023-02-22T00:45:35;96589.94;;;5.09;56.01
47366;BME280;33105;47.964;7.982;2023-02-22T00:48:37;96577.72;;;5.30;54.46
47366;BME280;33105;47.964;7.982;2023-02-22T00:51:38;96574.47;;;5.39;54.33
47366;BME280;33105;47.964;7.982;2023-02-22T00:54:39;96571.25;;;5.31;54.96
47366;BME280;33105;47.964;7.982;2023-02-22T00:57:41;96566.94;;;5.41;54.31
47366;BME280;33105;47.964;7.982;2023-02-22T01:00:42;96559.97;;;5.57;54.27
47366;BME280;33105;47.964;7.982;2023-02-22T01:03:43;96565.97;;;5.47;54.68
47366;BME280;33105;47.964;7.982;2023-02-22T01:06:44;96555.81;;;5.31;55.20
47366;BME280;33105;47.964;7.982;2023-02-22T01:09:46;96559.09;;;5.22;55.30
47366;BME280;33105;47.964;7.982;2023-02-22T01:12:48;96557.06;;;5.05;56.02
47366;BME280;33105;47.964;7.982;2023-02-22T01:15:50;96559.22;;;5.15;55.75
47366;BME280;33105;47.964;7.982;2023-02-22T01:18:51;96562.47;;;4.94;55.45
47366;BME280;33105;47.964;7.982;2023-02-22T01:21:52;96558.34;;;5.03;55.76
47366;BME280;33105;47.964;7.982;2023-02-22T01:24:54;96554.13;;;5.07;55.28
47366;BME280;33105;47.964;7.982;2023-02-22T01:27:57;96549.91;;;5.11;54.82
47366;BME280;33105;47.964;7.982;2023-02-22T01:30:59;96547.69;;;5.20;54.96
47366;BME280;33105;47.964;7.982;2023-02-22T01:34:01;96553.81;;;5.15;55.57
47366;BME280;33105;47.964;7.982;2023-02-22T01:37:03;96547.22;;;5.23;54.77
47366;BME280;33105;47.964;7.982;2023-02-22T01:40:08;96538.16;;;5.17;55.07
47366;BME280;33105;47.964;7.982;2023-02-22T01:43:25;96540.63;;;5.19;54.89
47366;BME280;33105;47.964;7.982;2023-02-22T01:46:27;96525.56;;;5.34;54.26
47366;BME280;33105;47.964;7.982;2023-02-22T01:49:39;96526.75;;;5.38;54.53
47366;BME280;33105;47.964;7.982;2023-02-22T01:52:42;96523.84;;;4.98;55.62
47366;BME280;33105;47.964;7.982;2023-02-22T01:55:45;96523.06;;;5.21;53.92
47366;BME280;33105;47.964;7.982;2023-02-22T01:58:58;96520.50;;;5.26;53.90
47366;BME280;33105;47.964;7.982;2023-02-22T02:02:01;96516.22;;;5.07;54.95
47366;BME280;33105;47.964;7.982;2023-02-22T02:05:04;96516.72;;;5.27;53.41
47366;BME280;33105;47.964;7.982;2023-02-22T02:08:20;96510.13;;;5.23;53.60
47366;BME280;33105;47.964;7.982;2023-02-22T02:11:24;96508.59;;;5.16;54.64
47366;BME280;33105;47.964;7.982;2023-02-22T02:14:27;96509.16;;;5.06;54.55
47366;BME280;33105;47.964;7.982;2023-02-22T02:17:31;96513.44;;;5.13;54.99
47366;BME280;33105;47.964;7.982;2023-02-22T02:27:55;96496.78;;;4.98;57.04
47366;BME280;33105;47.964;7.982;2023-02-22T02:34:34;96497.09;;;4.78;56.63
47366;BME280;33105;47.964;7.982;2023-02-22T02:41:15;96499.38;;;4.93;55.25
47366;BME280;33105;47.964;7.982;2023-02-22T02:44:36;96495.50;;;5.01;54.74
47366;BME280;33105;47.964;7.982;2023-02-22T02:47:44;96499.03;;;5.01;54.79
47366;BME280;33105;47.964;7.982;2023-02-22T02:50:48;96492.47;;;5.09;55.38
47366;BME280;33105;47.964;7.982;2023-02-22T02:53:51;96487.75;;;4.93;56.58
47366;BME280;33105;47.964;7.982;2023-02-22T02:56:54;96496.06;;;4.79;56.61
47366;BME280;33105;47.964;7.982;2023-02-22T02:59:56;96489.88;;;4.61;57.52
47366;BME280;33105;47.964;7.982;2023-02-22T03:06:39;96491.31;;;4.33;58.76
47366;BME280;33105;47.964;7.982;2023-02-22T03:10:17;96491.41;;;4.27;57.57
47366;BME280;33105;47.964;7.982;2023-02-22T03:13:41;96488.00;;;4.20;58.29
47366;BME280;33105;47.964;7.982;2023-02-22T03:17:22;96491.53;;;4.02;58.45
47366;BME280;33105;47.964;7.982;2023-02-22T03:20:31;96490.31;;;3.98;59.79
47366;BME280;33105;47.964;7.982;2023-02-22T03:27:11;96494.16;;;4.08;60.14
47366;BME280;33105;47.964;7.982;2023-02-22T03:30:24;96488.28;;;4.12;59.74
47366;BME280;33105;47.964;7.982;2023-02-22T03:33:40;96493.91;;;4.10;60.22
47366;BME280;33105;47.964;7.982;2023-02-22T03:36:53;96491.00;;;4.12;60.31
47366;BME280;33105;47.964;7.982;2023-02-22T03:39:59;96489.03;;;4.00;60.65
47366;BME280;33105;47.964;7.982;2023-02-22T03:43:06;96481.03;;;3.94;61.17
47366;BME280;33105;47.964;7.982;2023-02-22T03:46:09;96489.50;;;3.97;60.26
47366;BME280;33105;47.964;7.982;2023-02-22T03:52:26;96483.63;;;4.00;60.97
47366;BME280;33105;47.964;7.982;2023-02-22T03:55:27;96488.03;;;3.83;61.79
47366;BME280;33105;47.964;7.982;2023-02-22T03:58:30;96484.56;;;3.76;61.63
47366;BME280;33105;47.964;7.982;2023-02-22T04:01:35;96480.66;;;3.72;61.42
47366;BME280;33105;47.964;7.982;2023-02-22T04:04:37;96482.16;;;3.86;61.17
47366;BME280;33105;47.964;7.982;2023-02-22T04:07:39;96474.09;;;3.98;61.71
47366;BME280;33105;47.964;7.982;2023-02-22T04:10:40;96477.38;;;3.88;61.59
47366;BME280;33105;47.964;7.982;2023-02-22T04:13:42;96480.50;;;3.85;61.77
47366;BME280;33105;47.964;7.982;2023-02-22T04:16:44;96481.03;;;3.75;62.09
47366;BME280;33105;47.964;7.982;2023-02-22T04:19:46;96474.34;;;3.78;62.57
47366;BME280;33105;47.964;7.982;2023-02-22T04:22:48;96483.06;;;3.80;62.76
47366;BME280;33105;47.964;7.982;2023-02-22T04:25:50;96477.59;;;3.68;62.88
47366;BME280;33105;47.964;7.982;2023-02-22T04:28:51;96479.81;;;3.71;62.76
47366;BME280;33105;47.964;7.982;2023-02-22T04:31:56;96472.72;;;3.59;63.35
47366;BME280;33105;47.964;7.982;2023-02-22T04:34:58;96467.75;;;3.56;63.38
47366;BME280;33105;47.964;7.982;2023-02-22T04:37:59;96473.31;;;3.61;63.57
47366;BME280;33105;47.964;7.982;2023-02-22T04:41:01;96471.50;;;3.55;63.26
47366;BME280;33105;47.964;7.982;2023-02-22T04:44:03;96465.50;;;3.53;63.44
47366;BME280;33105;47.964;7.982;2023-02-22T04:47:05;96460.09;;;3.53;63.39
47366;BME280;33105;47.964;7.982;2023-02-22T04:50:08;96457.13;;;3.61;63.36
47366;BME280;33105;47.964;7.982;2023-02-22T04:53:10;96454.19;;;3.62;63.11
47366;BME280;33105;47.964;7.982;2023-02-22T04:56:12;96460.63;;;3.80;62.56
47366;BME280;33105;47.964;7.982;2023-02-22T04:59:14;96451.53;;;3.74;62.12
47366;BME280;33105;47.964;7.982;2023-02-22T05:02:18;96453.88;;;3.70;62.80
47366;BME280;33105;47.964;7.982;2023-02-22T05:05:21;96459.63;;;3.74;63.15
47366;BME280;33105;47.964;7.982;2023-02-22T05:08:22;96452.03;;;3.71;63.53
47366;BME280;33105;47.964;7.982;2023-02-22T05:11:24;96449.31;;;3.71;63.51
47366;BME280;33105;47.964;7.982;2023-02-22T05:14:25;96444.47;;;3.73;63.48
47366;BME280;33105;47.964;7.982;2023-02-22T05:17:29;96437.31;;;3.67;63.99
47366;BME280;33105;47.964;7.982;2023-02-22T05:20:33;96443.44;;;3.56;64.15
47366;BME280;33105;47.964;7.982;2023-02-22T05:23:35;96441.81;;;3.55;63.21
47366;BME280;33105;47.964;7.982;2023-02-22T05:26:36;96440.84;;;3.67;63.24
47366;BME280;33105;47.964;7.982;2023-02-22T05:29:37;96434.22;;;3.63;64.02
47366;BME280;33105;47.964;7.982;2023-02-22T05:32:38;96440.63;;;3.69;63.58
47366;BME280;33105;47.964;7.982;2023-02-22T05:35:40;96435.34;;;3.56;63.48
47366;BME280;33105;47.964;7.982;2023-02-22T05:38:41;96431.19;;;3.71;63.50
47366;BME280;33105;47.964;7.982;2023-02-22T05:41:44;96427.56;;;3.66;63.99
47366;BME280;33105;47.964;7.982;2023-02-22T05:44:45;96437.88;;;3.87;63.30
47366;BME280;33105;47.964;7.982;2023-02-22T05:47:47;96434.88;;;3.95;63.91
47366;BME280;33105;47.964;7.982;2023-02-22T05:50:48;96427.59;;;3.78;64.44
47366;BME280;33105;47.964;7.982;2023-02-22T05:53:49;96427.53;;;3.84;64.28
47366;BME280;33105;47.964;7.982;2023-02-22T05:56:52;96427.97;;;3.81;64.67
47366;BME280;33105;47.964;7.982;2023-02-22T05:59:53;96422.88;;;3.73;64.47
47366;BME280;33105;47.964;7.982;2023-02-22T06:02:56;96426.28;;;3.68;64.32
47366;BME280;33105;47.964;7.982;2023-02-22T06:05:57;96431.28;;;3.83;63.75
47366;BME280;33105;47.964;7.982;2023-02-22T06:08:58;96428.19;;;3.80;63.67
47366;BME280;33105;47.964;7.982;2023-02-22T06:12:00;96428.19;;;3.80;64.24
47366;BME280;33105;47.964;7.982;2023-02-22T06:15:01;96433.63;;;3.61;64.61
47366;BME280;33105;47.964;7.982;2023-02-22T06:18:02;96421.81;;;3.92;63.04
47366;BME280;33105;47.964;7.982;2023-02-22T06:21:07;96433.03;;;4.07;62.36
47366;BME280;33105;47.964;7.982;2023-02-22T06:24:08;96429.41;;;4.14;61.66
47366;BME280;33105;47.964;7.982;2023-02-22T06:27:09;96421.84;;;4.34;61.93
47366;BME280;33105;47.964;7.982;2023-02-22T06:30:11;96432.59;;;4.22;62.57
47366;BME280;33105;47.964;7.982;2023-02-22T06:33:13;96430.94;;;4.09;64.26
47366;BME280;33105;47.964;7.982;2023-02-22T06:36:14;96435.13;;;4.05;64.45
47366;BME280;33105;47.964;7.982;2023-02-22T06:39:16;96439.72;;;4.05;63.28
47366;BME280;33105;47.964;7.982;2023-02-22T06:42:18;96445.63;;;4.14;63.16
47366;BME280;33105;47.964;7.982;2023-02-22T06:45:20;96451.03;;;4.14;62.93
47366;BME280;33105;47.964;7.982;2023-02-22T06:48:21;96451.88;;;4.14;63.47
47366;BME280;33105;47.964;7.982;2023-02-22T06:51:22;96446.94;;;4.23;63.31
47366;BME280;33105;47.964;7.982;2023-02-22T06:54:23;96443.94;;;4.31;62.78
47366;BME280;33105;47.964;7.982;2023-02-22T06:57:25;96452.31;;;4.41;63.26
47366;BME280;33105;47.964;7.982;2023-02-22T07:00:28;96452.19;;;4.48;62.81
47366;BME280;33105;47.964;7.982;2023-02-22T07:03:29;96442.94;;;4.55;63.30
47366;BME280;33105;47.964;7.982;2023-02-22T07:06:30;96453.91;;;4.60;63.53
47366;BME280;33105;47.964;7.982;2023-02-22T07:09:32;96451.28;;;4.54;62.67
47366;BME280;33105;47.964;7.982;2023-02-22T07:12:34;96449.53;;;4.59;63.73
47366;BME280;33105;47.964;7.982;2023-02-22T07:15:35;96464.13;;;4.58;64.15
47366;BME280;33105;47.964;7.982;2023-02-22T07:18:36;96452.16;;;4.66;63.42
47366;BME280;33105;47.964;7.982;2023-02-22T07:21:38;96460.72;;;4.74;63.36
47366;BME280;33105;47.964;7.982;2023-02-22T07:24:39;96458.63;;;4.76;64.05
47366;BME280;33105;47.964;7.982;2023-02-22T07:27:41;96463.13;;;4.83;64.81
47366;BME280;33105;47.964;7.982;2023-02-22T07:30:42;96461.22;;;4.83;63.39
47366;BME280;33105;47.964;7.982;2023-02-22T07:33:47;96461.72;;;4.92;64.23
47366;BME280;33105;47.964;7.982;2023-02-22T07:36:48;96460.66;;;4.93;63.12
47366;BME280;33105;47.964;7.982;2023-02-22T07:39:49;96451.34;;;5.00;64.11
47366;BME280;33105;47.964;7.982;2023-02-22T07:45:54;96456.06;;;5.05;65.08
47366;BME280;33105;47.964;7.982;2023-02-22T07:48:55;96452.53;;;5.04;65.24
47366;BME280;33105;47.964;7.982;2023-02-22T07:51:56;96452.78;;;5.03;65.37
47366;BME280;33105;47.964;7.982;2023-02-22T07:54:57;96463.13;;;5.06;67.01
47366;BME280;33105;47.964;7.982;2023-02-22T07:58:02;96459.59;;;5.05;65.49
47366;BME280;33105;47.964;7.982;2023-02-22T08:01:04;96459.13;;;5.20;64.60
47366;BME280;33105;47.964;7.982;2023-02-22T08:04:06;96444.06;;;5.24;63.70
47366;BME280;33105;47.964;7.982;2023-02-22T08:07:07;96450.44;;;5.30;64.12
47366;BME280;33105;47.964;7.982;2023-02-22T08:10:09;96458.78;;;5.52;65.49
47366;BME280;33105;47.964;7.982;2023-02-22T08:13:11;96451.22;;;5.65;63.81
47366;BME280;33105;47.964;7.982;2023-02-22T08:16:12;96450.59;;;5.75;63.82
47366;BME280;33105;47.964;7.982;2023-02-22T08:19:13;96454.38;;;5.86;64.45
47366;BME280;33105;47.964;7.982;2023-02-22T08:22:15;96445.63;;;5.95;62.70
47366;BME280;33105;47.964;7.982;2023-02-22T08:25:17;96440.16;;;6.19;60.67
47366;BME280;33105;47.964;7.982;2023-02-22T08:28:20;96436.44;;;6.53;62.05
47366;BME280;33105;47.964;7.982;2023-02-22T08:31:23;96426.84;;;6.79;61.79
47366;BME280;33105;47.964;7.982;2023-02-22T08:34:25;96429.38;;;7.02;61.54
47366;BME280;33105;47.964;7.982;2023-02-22T08:37:26;96429.91;;;7.16;61.13
47366;BME280;33105;47.964;7.982;2023-02-22T08:40:30;96427.47;;;7.36;60.37
47366;BME280;33105;47.964;7.982;2023-02-22T08:43:32;96430.06;;;7.65;59.54
47366;BME280;33105;47.964;7.982;2023-02-22T08:46:33;96427.34;;;7.65;59.99
47366;BME280;33105;47.964;7.982;2023-02-22T08:49:34;96423.97;;;7.79;59.28
47366;BME280;33105;47.964;7.982;2023-02-22T08:52:35;96423.91;;;7.96;58.99
47366;BME280;33105;47.964;7.982;2023-02-22T08:55:38;96422.06;;;8.24;59.23
47366;BME280;33105;47.964;7.982;2023-02-22T08:58:39;96421.13;;;8.13;60.20
47366;BME280;33105;47.964;7.982;2023-02-22T09:01:41;96439.78;;;8.04;59.25
47366;BME280;33105;47.964;7.982;2023-02-22T09:04:42;96432.56;;;7.93;61.03
47366;BME280;33105;47.964;7.982;2023-02-22T09:07:44;96433.72;;;7.97;62.19
47366;BME280;33105;47.964;7.982;2023-02-22T09:10:45;96435.31;;;8.37;63.70
47366;BME280;33105;47.964;7.982;2023-02-22T09:13:47;96436.06;;;8.32;62.26
47366;BME280;33105;47.964;7.982;2023-02-22T09:16:48;96436.28;;;8.79;64.50
47366;BME280;33105;47.964;7.982;2023-02-22T09:19:49;96427.09;;;8.59;62.34
47366;BME280;33105;47.964;7.982;2023-02-22T09:22:50;96427.47;;;8.72;60.82
47366;BME280;33105;47.964;7.982;2023-02-22T09:25:52;96417.47;;;9.10;62.19
47366;BME280;33105;47.964;7.982;2023-02-22T09:28:53;96418.41;;;9.26;62.01
47366;BME280;33105;47.964;7.982;2023-02-22T09:31:55;96425.78;;;9.30;59.91
47366;BME280;33105;47.964;7.982;2023-02-22T09:34:56;96422.59;;;9.38;57.85
47366;BME280;33105;47.964;7.982;2023-02-22T09:37:58;96427.75;;;9.35;58.06
47366;BME280;33105;47.964;7.982;2023-02-22T09:41:19;96420.69;;;9.91;58.58
47366;BME280;33105;47.964;7.982;2023-02-22T09:47:55;96420.78;;;10.16;55.06
47366;BME280;33105;47.964;7.982;2023-02-22T09:50:58;96415.97;;;10.29;56.30
47366;BME280;33105;47.964;7.982;2023-02-22T09:54:03;96413.25;;;10.44;58.10
47366;BME280;33105;47.964;7.982;2023-02-22T09:57:09;96403.22;;;10.60;58.78
47366;BME280;33105;47.964;7.982;2023-02-22T10:00:17;96404.59;;;10.62;55.76
47366;BME280;33105;47.964;7.982;2023-02-22T10:06:23;96410.31;;;10.71;59.76
47366;BME280;33105;47.964;7.982;2023-02-22T10:09:26;96408.94;;;10.63;58.59
47366;BME280;33105;47.964;7.982;2023-02-22T10:12:40;96399.66;;;10.74;59.29
47366;BME280;33105;47.964;7.982;2023-02-22T10:22:15;96398.31;;;11.07;58.44
47366;BME280;33105;47.964;7.982;2023-02-22T10:25:23;96396.94;;;10.95;57.88
47366;BME280;33105;47.964;7.982;2023-02-22T10:28:31;96389.28;;;11.17;60.10
47366;BME280;33105;47.964;7.982;2023-02-22T10:31:43;96391.75;;;10.88;58.76
47366;BME280;33105;47.964;7.982;2023-02-22T10:34:47;96388.22;;;11.08;60.95
47366;BME280;33105;47.964;7.982;2023-02-22T10:37:55;96391.75;;;11.03;61.43
47366;BME280;33105;47.964;7.982;2023-02-22T10:44:09;96386.81;;;11.15;62.48
47366;BME280;33105;47.964;7.982;2023-02-22T10:47:12;96384.38;;;11.04;63.17
47366;BME280;33105;47.964;7.982;2023-02-22T10:50:15;96384.03;;;11.41;63.00
47366;BME280;33105;47.964;7.982;2023-02-22T10:53:16;96385.41;;;11.48;62.89
47366;BME280;33105;47.964;7.982;2023-02-22T10:56:19;96382.13;;;11.56;62.73
47366;BME280;33105;47.964;7.982;2023-02-22T10:59:40;96369.53;;;11.55;62.67
47366;BME280;33105;47.964;7.982;2023-02-22T11:02:50;96362.94;;;11.77;63.25
47366;BME280;33105;47.964;7.982;2023-02-22T11:05:53;96369.94;;;12.03;62.32
47366;BME280;33105;47.964;7.982;2023-02-22T11:09:24;96366.13;;;12.04;62.75
47366;BME280;33105;47.964;7.982;2023-02-22T11:12:32;96372.00;;;12.32;61.56
47366;BME280;33105;47.964;7.982;2023-02-22T11:15:33;96367.19;;;12.57;60.71
47366;BME280;33105;47.964;7.982;2023-02-22T11:18:35;96354.72;;;12.75;59.73
47366;BME280;33105;47.964;7.982;2023-02-22T11:21:38;96355.97;;;12.54;59.22
47366;BME280;33105;47.964;7.982;2023-02-22T11:24:57;96354.31;;;12.92;59.00
47366;BME280;33105;47.964;7.982;2023-02-22T11:28:25;96350.41;;;13.03;59.47
47366;BME280;33105;47.964;7.982;2023-02-22T11:31:30;96342.53;;;13.25;57.60
47366;BME280;33105;47.964;7.982;2023-02-22T11:34:38;96341.53;;;13.16;57.43
47366;BME280;33105;47.964;7.982;2023-02-22T11:37:39;96344.66;;;13.34;57.69
47366;BME280;33105;47.964;7.982;2023-02-22T11:40:41;96335.09;;;13.31;58.12
47366;BME280;33105;47.964;7.982;2023-02-22T11:43:44;96333.00;;;13.47;58.70
47366;BME280;33105;47.964;7.982;2023-02-22T11:46:46;96322.84;;;13.18;57.85
47366;BME280;33105;47.964;7.982;2023-02-22T11:49:47;96325.66;;;13.37;57.28
47366;BME280;33105;47.964;7.982;2023-02-22T11:52:54;96324.28;;;13.40;57.63
47366;BME280;33105;47.964;7.982;2023-02-22T12:09:18;96309.97;;;13.67;56.17
47366;BME280;33105;47.964;7.982;2023-02-22T12:16:25;96301.59;;;13.58;56.63
47366;BME280;33105;47.964;7.982;2023-02-22T12:19:34;96306.31;;;13.76;55.58
47366;BME280;33105;47.964;7.982;2023-02-22T12:23:00;96305.16;;;13.58;55.99
47366;BME280;33105;47.964;7.982;2023-02-22T12:26:11;96316.41;;;13.33;56.95
47366;BME280;33105;47.964;7.982;2023-02-22T12:29:29;96316.16;;;13.30;57.82
47366;BME280;33105;47.964;7.982;2023-02-22T12:32:43;96321.13;;;13.27;58.69
47366;BME280;33105;47.964;7.982;2023-02-22T12:35:57;96317.06;;;13.20;58.24
47366;BME280;33105;47.964;7.982;2023-02-22T12:39:03;96319.16;;;13.33;57.92
47366;BME280;33105;47.964;7.982;2023-02-22T12:42:14;96309.38;;;13.22;58.87
47366;BME280;33105;47.964;7.982;2023-02-22T12:45:44;96322.09;;;12.79;59.04
47366;BME280;33105;47.964;7.982;2023-02-22T12:48:56;96315.88;;;12.97;59.77
47366;BME280;33105;47.964;7.982;2023-02-22T12:52:08;96317.72;;;13.07;58.94
47366;BME280;33105;47.964;7.982;2023-02-22T12:55:24;96312.94;;;13.22;61.38
47366;BME280;33105;47.964;7.982;2023-02-22T12:58:43;96315.16;;;13.20;58.33
47366;BME280;33105;47.964;7.982;2023-02-22T13:02:11;96326.19;;;12.81;57.08
47366;BME280;33105;47.964;7.982;2023-02-22T13:05:14;96318.88;;;13.01;58.70
47366;BME280;33105;47.964;7.982;2023-02-22T13:24:41;96316.19;;;12.95;59.12
47366;BME280;33105;47.964;7.982;2023-02-22T13:27:57;96318.31;;;13.04;57.98
47366;BME280;33105;47.964;7.982;2023-02-22T13:57:28;96325.81;;;12.59;59.28
47366;BME280;33105;47.964;7.982;2023-02-22T14:00:54;96326.94;;;12.53;59.97
47366;BME280;33105;47.964;7.982;2023-02-22T14:10:44;96328.53;;;12.59;61.33
47366;BME280;33105;47.964;7.982;2023-02-22T14:17:24;96327.78;;;12.48;59.56
47366;BME280;33105;47.964;7.982;2023-02-22T14:20:36;96330.00;;;12.46;60.22
47366;BME280;33105;47.964;7.982;2023-02-22T14:23:42;96327.53;;;12.45;60.74
47366;BME280;33105;47.964;7.982;2023-02-22T14:27:13;96327.09;;;12.27;60.74
47366;BME280;33105;47.964;7.982;2023-02-22T14:30:26;96321.72;;;12.12;61.65
47366;BME280;33105;47.964;7.982;2023-02-22T14:37:05;96321.41;;;12.14;61.44
47366;BME280;33105;47.964;7.982;2023-02-22T14:40:24;96313.81;;;12.06;62.08
47366;BME280;33105;47.964;7.982;2023-02-22T14:43:28;96320.66;;;12.03;62.46
47366;BME280;33105;47.964;7.982;2023-02-22T14:46:33;96324.16;;;12.14;62.71
47366;BME280;33105;47.964;7.982;2023-02-22T14:49:41;96325.25;;;12.13;62.88
47366;BME280;33105;47.964;7.982;2023-02-22T14:52:46;96331.59;;;12.08;62.85
47366;BME280;33105;47.964;7.982;2023-02-22T14:55:56;96330.53;;;11.99;62.78
47366;BME280;33105;47.964;7.982;2023-02-22T15:02:12;96326.19;;;11.93;63.23
47366;BME280;33105;47.964;7.982;2023-02-22T15:05:16;96336.56;;;11.96;63.35
47366;BME280;33105;47.964;7.982;2023-02-22T15:08:21;96329.53;;;11.65;64.42
47366;BME280;33105;47.964;7.982;2023-02-22T15:11:29;96339.94;;;11.68;65.39
47366;BME280;33105;47.964;7.982;2023-02-22T15:14:35;96336.09;;;11.74;64.61
47366;BME280;33105;47.964;7.982;2023-02-22T15:17:37;96331.78;;;11.63;64.79
47366;BME280;33105;47.964;7.982;2023-02-22T15:20:39;96330.66;;;11.64;65.35
47366;BME280;33105;47.964;7.982;2023-02-22T15:23:46;96340.00;;;11.47;64.77
47366;BME280;33105;47.964;7.982;2023-02-22T15:26:49;96331.25;;;11.45;65.60
47366;BME280;33105;47.964;7.982;2023-02-22T15:29:56;96337.00;;;11.49;65.28
47366;BME280;33105;47.964;7.982;2023-02-22T15:33:28;96337.88;;;11.34;66.08
47366;BME280;33105;47.964;7.982;2023-02-22T15:36:31;96336.19;;;11.43;66.33
47366;BME280;33105;47.964;7.982;2023-02-22T15:39:34;96340.06;;;11.32;66.77
47366;BME280;33105;47.964;7.982;2023-02-22T15:45:52;96341.44;;;11.19;67.77
47366;BME280;33105;47.964;7.982;2023-02-22T15:49:23;96344.47;;;11.03;68.30
47366;BME280;33105;47.964;7.982;2023-02-22T15:52:25;96351.84;;;10.72;69.84
47366;BME280;33105;47.964;7.982;2023-02-22T15:55:27;96349.94;;;10.77;69.83
47366;BME280;33105;47.964;7.982;2023-02-22T15:58:29;96353.47;;;10.98;68.94
47366;BME280;33105;47.964;7.982;2023-02-22T16:01:39;96348.31;;;10.81;70.98
47366;BME280;33105;47.964;7.982;2023-02-22T16:04:41;96352.41;;;10.74;70.91
47366;BME280;33105;47.964;7.982;2023-02-22T16:07:47;96359.75;;;10.68;71.33
47366;BME280;33105;47.964;7.982;2023-02-22T16:10:58;96354.59;;;10.62;71.31
47366;BME280;33105;47.964;7.982;2023-02-22T16:14:04;96358.38;;;10.50;71.09
47366;BME280;33105;47.964;7.982;2023-02-22T16:23:29;96371.22;;;10.45;72.25
47366;BME280;33105;47.964;7.982;2023-02-22T16:26:32;96372.31;;;10.49;71.80
47366;BME280;33105;47.964;7.982;2023-02-22T16:29:34;96371.44;;;10.28;72.53
47366;BME280;33105;47.964;7.982;2023-02-22T16:32:35;96373.38;;;10.33;72.55
47366;BME280;33105;47.964;7.982;2023-02-22T16:35:36;96380.66;;;10.17;72.89
47366;BME280;33105;47.964;7.982;2023-02-22T16:38:37;96380.09;;;10.15;74.20
47366;BME280;33105;47.964;7.982;2023-02-22T16:41:39;96383.94;;;10.09;72.72
47366;BME280;33105;47.964;7.982;2023-02-22T16:44:40;96378.41;;;9.99;72.13
47366;BME280;33105;47.964;7.982;2023-02-22T16:47:41;96376.50;;;9.99;72.38
47366;BME280;33105;47.964;7.982;2023-02-22T16:50:43;96379.28;;;10.04;71.81
47366;BME280;33105;47.964;7.982;2023-02-22T16:53:44;96386.44;;;10.20;71.67
47366;BME280;33105;47.964;7.982;2023-02-22T16:56:46;96381.47;;;10.17;70.83
47366;BME280;33105;47.964;7.982;2023-02-22T16:59:48;96383.13;;;10.18;71.88
47366;BME280;33105;47.964;7.982;2023-02-22T17:02:52;96378.81;;;10.28;70.91
47366;BME280;33105;47.964;7.982;2023-02-22T17:05:53;96376.94;;;10.38;71.60
47366;BME280;33105;47.964;7.982;2023-02-22T17:08:54;96380.19;;;10.30;72.04
47366;BME280;33105;47.964;7.982;2023-02-22T17:11:55;96378.59;;;10.39;71.65
47366;BME280;33105;47.964;7.982;2023-02-22T17:14:57;96382.94;;;10.35;71.66
47366;BME280;33105;47.964;7.982;2023-02-22T17:17:58;96381.84;;;10.31;71.82
47366;BME280;33105;47.964;7.982;2023-02-22T17:21:00;96387.56;;;10.30;72.23
47366;BME280;33105;47.964;7.982;2023-02-22T17:24:02;96390.06;;;10.36;72.34
47366;BME280;33105;47.964;7.982;2023-02-22T17:27:04;96394.31;;;10.12;73.51
47366;BME280;33105;47.964;7.982;2023-02-22T17:30:05;96385.34;;;10.21;73.14
47366;BME280;33105;47.964;7.982;2023-02-22T17:33:12;96399.56;;;10.23;73.71
47366;BME280;33105;47.964;7.982;2023-02-22T17:36:15;96402.81;;;10.20;73.99
47366;BME280;33105;47.964;7.982;2023-02-22T17:39:17;96405.50;;;10.15;73.98
47366;BME280;33105;47.964;7.982;2023-02-22T17:42:18;96408.28;;;10.20;73.84
47366;BME280;33105;47.964;7.982;2023-02-22T17:45:23;96409.94;;;10.27;73.50
47366;BME280;33105;47.964;7.982;2023-02-22T17:48:25;96405.53;;;10.20;74.20
47366;BME280;33105;47.964;7.982;2023-02-22T17:51:26;96413.97;;;10.14;74.45
47366;BME280;33105;47.964;7.982;2023-02-22T17:54:28;96421.03;;;10.05;75.60
47366;BME280;33105;47.964;7.982;2023-02-22T17:57:29;96413.63;;;10.00;75.55
47366;BME280;33105;47.964;7.982;2023-02-22T18:00:34;96413.13;;;10.08;75.26
47366;BME280;33105;47.964;7.982;2023-02-22T18:03:36;96406.25;;;9.96;75.63
47366;BME280;33105;47.964;7.982;2023-02-22T18:06:39;96413.91;;;9.99;76.05
47366;BME280;33105;47.964;7.982;2023-02-22T18:09:40;96416.69;;;10.09;75.33
47366;BME280;33105;47.964;7.982;2023-02-22T18:12:42;96408.19;;;10.05;75.72
47366;BME280;33105;47.964;7.982;2023-02-22T18:15:44;96418.53;;;9.98;76.36
47366;BME280;33105;47.964;7.982;2023-02-22T18:18:45;96414.97;;;9.87;77.41
47366;BME280;33105;47.964;7.982;2023-02-22T18:21:47;96416.16;;;9.60;78.69
47366;BME280;33105;47.964;7.982;2023-02-22T18:24:49;96414.03;;;9.72;78.15
47366;BME280;33105;47.964;7.982;2023-02-22T18:27:50;96413.91;;;9.46;80.37
47366;BME280;33105;47.964;7.982;2023-02-22T18:30:53;96415.63;;;9.58;80.21
47366;BME280;33105;47.964;7.982;2023-02-22T18:33:54;96412.81;;;9.47;80.93
47366;BME280;33105;47.964;7.982;2023-02-22T18:36:57;96415.53;;;9.47;81.94
47366;BME280;33105;47.964;7.982;2023-02-22T18:39:59;96413.09;;;9.51;81.31